Main page
METAR-TAF:

METAR-TAF

Airports :

Tunis–Carthage International Airport

Tunis, Tunisia

latitude: 36-50N, longitude: 010-14E, elevation: 3 m

Current weather observation

The report was made 13 minutes ago, at 18:30 UTC
Wind 4 kt from the East, varying between Northeast and Southeast
Temperature 19°C
Humidity 73%
Pressure 1023 hPa
Visibility 10 km or more
Scattered clouds at a height of 2600 ft

METAR: DTTA 141830Z 10004KT 050V140 9999 SCT026 19/14 Q1023

Time: 19:43 (18:43 UTC)

Forecast

The report was made 1 hour and 43 minutes ago, at 17:00 UTC
Forecast valid from 14 at 18 UTC to 15 at 18 UTC
Wind 6 kt from the East/Southeast
Visibility 10 km or more
Few clouds at a height of 2600 ft
Temporary
from 15 at 05 UTC to 15 at 07 UTC
Visibility: 3000 m
mist

TAF: DTTA 141700Z 1418/1518 11006KT 9999 FEW026 TEMPO 1505/1507 3000 BR

Weather observations and forecasts of more than 4000 airports (METAR and TAF reports).

The available stations are represented by yellow and red dots on the map.

Hover mouse over dot to see the name of the station.

Then click to see weather observations and forecasts.

To change the map : click on the green buttons with a black cross to zoom in, on the green button with a dash to zoom out, or on the green arrows for adjacent maps.


METAR-TAF: